sensor_id;sensor_type;location;lat;lon;timestamp;P1;durP1;ratioP1;P2;durP2;ratioP2
38529;SDS011;24301;54.332;48.386;2022-09-03T00:05:05;14.60;;;8.40;;
38529;SDS011;24301;54.332;48.386;2022-09-03T00:10:41;12.20;;;7.57;;
38529;SDS011;24301;54.332;48.386;2022-09-03T00:13:16;14.00;;;7.93;;
38529;SDS011;24301;54.332;48.386;2022-09-03T00:15:47;11.57;;;7.67;;
38529;SDS011;24301;54.332;48.386;2022-09-03T00:18:19;16.20;;;7.47;;
38529;SDS011;24301;54.332;48.386;2022-09-03T00:20:50;12.67;;;7.63;;
38529;SDS011;24301;54.332;48.386;2022-09-03T00:23:25;16.40;;;7.37;;
38529;SDS011;24301;54.332;48.386;2022-09-03T00:25:55;9.67;;;6.80;;
38529;SDS011;24301;54.332;48.386;2022-09-03T00:28:29;13.50;;;8.10;;
38529;SDS011;24301;54.332;48.386;2022-09-03T00:31:09;10.90;;;6.60;;
38529;SDS011;24301;54.332;48.386;2022-09-03T00:33:43;12.93;;;6.57;;
38529;SDS011;24301;54.332;48.386;2022-09-03T00:36:17;9.07;;;5.77;;
38529;SDS011;24301;54.332;48.386;2022-09-03T00:38:47;10.93;;;7.27;;
38529;SDS011;24301;54.332;48.386;2022-09-03T00:52:37;11.10;;;6.57;;
38529;SDS011;24301;54.332;48.386;2022-09-03T00:58:06;13.67;;;6.93;;
38529;SDS011;24301;54.332;48.386;2022-09-03T01:00:42;11.50;;;6.00;;
38529;SDS011;24301;54.332;48.386;2022-09-03T01:09:11;11.03;;;6.67;;
38529;SDS011;24301;54.332;48.386;2022-09-03T01:11:44;8.50;;;5.73;;
38529;SDS011;24301;54.332;48.386;2022-09-03T01:19:37;10.03;;;6.40;;
38529;SDS011;24301;54.332;48.386;2022-09-03T01:25:22;10.10;;;4.73;;
38529;SDS011;24301;54.332;48.386;2022-09-03T01:30:57;9.93;;;5.50;;
38529;SDS011;24301;54.332;48.386;2022-09-03T01:36:59;8.67;;;5.63;;
38529;SDS011;24301;54.332;48.386;2022-09-03T01:42:09;8.30;;;6.13;;
38529;SDS011;24301;54.332;48.386;2022-09-03T02:00:26;7.60;;;4.97;;
38529;SDS011;24301;54.332;48.386;2022-09-03T02:02:59;8.47;;;5.07;;
38529;SDS011;24301;54.332;48.386;2022-09-03T02:05:30;10.30;;;5.57;;
38529;SDS011;24301;54.332;48.386;2022-09-03T02:08:03;7.53;;;3.83;;
38529;SDS011;24301;54.332;48.386;2022-09-03T02:13:17;6.80;;;3.60;;
38529;SDS011;24301;54.332;48.386;2022-09-03T02:15:47;8.10;;;3.63;;
38529;SDS011;24301;54.332;48.386;2022-09-03T02:18:23;5.97;;;4.67;;
38529;SDS011;24301;54.332;48.386;2022-09-03T02:20:53;10.23;;;3.97;;
38529;SDS011;24301;54.332;48.386;2022-09-03T02:23:19;10.03;;;4.27;;
38529;SDS011;24301;54.332;48.386;2022-09-03T02:25:49;8.47;;;4.67;;
38529;SDS011;24301;54.332;48.386;2022-09-03T02:28:19;7.53;;;3.53;;
38529;SDS011;24301;54.332;48.386;2022-09-03T02:30:46;6.22;;;3.25;;
38529;SDS011;24301;54.332;48.386;2022-09-03T02:33:12;5.22;;;3.28;;
38529;SDS011;24301;54.332;48.386;2022-09-03T02:35:39;7.93;;;2.67;;
38529;SDS011;24301;54.332;48.386;2022-09-03T02:38:10;7.80;;;3.60;;
38529;SDS011;24301;54.332;48.386;2022-09-03T02:40:36;8.48;;;3.35;;
38529;SDS011;24301;54.332;48.386;2022-09-03T02:43:02;4.30;;;2.95;;
38529;SDS011;24301;54.332;48.386;2022-09-03T02:45:30;4.30;;;2.97;;
38529;SDS011;24301;54.332;48.386;2022-09-03T02:47:58;5.63;;;3.17;;
38529;SDS011;24301;54.332;48.386;2022-09-03T02:50:25;5.68;;;3.30;;
38529;SDS011;24301;54.332;48.386;2022-09-03T02:52:51;3.90;;;2.65;;
38529;SDS011;24301;54.332;48.386;2022-09-03T02:55:17;5.40;;;2.90;;
38529;SDS011;24301;54.332;48.386;2022-09-03T02:57:44;5.28;;;2.60;;
38529;SDS011;24301;54.332;48.386;2022-09-03T03:00:12;5.32;;;3.10;;
38529;SDS011;24301;54.332;48.386;2022-09-03T03:02:38;3.17;;;2.13;;
38529;SDS011;24301;54.332;48.386;2022-09-03T03:05:06;5.10;;;2.35;;
38529;SDS011;24301;54.332;48.386;2022-09-03T03:07:36;4.43;;;2.08;;
38529;SDS011;24301;54.332;48.386;2022-09-03T03:10:03;4.60;;;2.67;;
38529;SDS011;24301;54.332;48.386;2022-09-03T03:12:29;6.13;;;2.60;;
38529;SDS011;24301;54.332;48.386;2022-09-03T03:14:55;9.95;;;2.55;;
38529;SDS011;24301;54.332;48.386;2022-09-03T03:17:21;4.78;;;2.08;;
38529;SDS011;24301;54.332;48.386;2022-09-03T03:19:47;5.07;;;3.03;;
38529;SDS011;24301;54.332;48.386;2022-09-03T03:22:13;3.83;;;2.15;;
38529;SDS011;24301;54.332;48.386;2022-09-03T03:24:39;6.90;;;2.10;;
38529;SDS011;24301;54.332;48.386;2022-09-03T03:27:05;8.38;;;1.92;;
38529;SDS011;24301;54.332;48.386;2022-09-03T03:29:32;2.85;;;1.60;;
38529;SDS011;24301;54.332;48.386;2022-09-03T03:31:58;2.90;;;1.83;;
38529;SDS011;24301;54.332;48.386;2022-09-03T03:34:24;3.92;;;1.95;;
38529;SDS011;24301;54.332;48.386;2022-09-03T03:36:50;5.70;;;2.00;;
38529;SDS011;24301;54.332;48.386;2022-09-03T03:39:15;3.67;;;1.70;;
38529;SDS011;24301;54.332;48.386;2022-09-03T03:41:41;4.30;;;1.90;;
38529;SDS011;24301;54.332;48.386;2022-09-03T03:44:07;3.78;;;1.60;;
38529;SDS011;24301;54.332;48.386;2022-09-03T03:46:34;6.93;;;1.90;;
38529;SDS011;24301;54.332;48.386;2022-09-03T03:49:05;3.25;;;1.67;;
38529;SDS011;24301;54.332;48.386;2022-09-03T03:51:35;2.65;;;1.50;;
38529;SDS011;24301;54.332;48.386;2022-09-03T03:54:02;2.85;;;1.58;;
38529;SDS011;24301;54.332;48.386;2022-09-03T03:56:28;4.78;;;2.00;;
38529;SDS011;24301;54.332;48.386;2022-09-03T03:58:54;1.85;;;1.40;;
38529;SDS011;24301;54.332;48.386;2022-09-03T04:01:24;3.35;;;1.42;;
38529;SDS011;24301;54.332;48.386;2022-09-03T04:03:53;2.80;;;1.30;;
38529;SDS011;24301;54.332;48.386;2022-09-03T04:06:20;2.65;;;1.60;;
38529;SDS011;24301;54.332;48.386;2022-09-03T04:08:46;3.67;;;1.20;;
38529;SDS011;24301;54.332;48.386;2022-09-03T04:11:14;2.88;;;1.65;;
38529;SDS011;24301;54.332;48.386;2022-09-03T04:13:42;5.43;;;1.73;;
38529;SDS011;24301;54.332;48.386;2022-09-03T04:16:10;3.42;;;1.33;;
38529;SDS011;24301;54.332;48.386;2022-09-03T04:18:38;2.03;;;1.20;;
38529;SDS011;24301;54.332;48.386;2022-09-03T04:21:06;4.10;;;1.85;;
38529;SDS011;24301;54.332;48.386;2022-09-03T04:23:36;6.38;;;1.77;;
38529;SDS011;24301;54.332;48.386;2022-09-03T04:26:04;3.25;;;1.65;;
38529;SDS011;24301;54.332;48.386;2022-09-03T04:28:32;2.13;;;1.38;;
38529;SDS011;24301;54.332;48.386;2022-09-03T04:31:02;2.00;;;1.45;;
38529;SDS011;24301;54.332;48.386;2022-09-03T04:33:32;2.70;;;1.30;;
38529;SDS011;24301;54.332;48.386;2022-09-03T04:36:12;1.55;;;1.13;;
38529;SDS011;24301;54.332;48.386;2022-09-03T04:38:39;2.58;;;1.30;;
38529;SDS011;24301;54.332;48.386;2022-09-03T04:41:06;3.47;;;1.50;;
38529;SDS011;24301;54.332;48.386;2022-09-03T04:43:34;2.03;;;1.23;;
38529;SDS011;24301;54.332;48.386;2022-09-03T04:46:01;3.00;;;1.70;;
38529;SDS011;24301;54.332;48.386;2022-09-03T04:48:30;1.77;;;1.35;;
38529;SDS011;24301;54.332;48.386;2022-09-03T04:51:00;2.60;;;1.33;;
38529;SDS011;24301;54.332;48.386;2022-09-03T04:53:37;2.75;;;1.40;;
38529;SDS011;24301;54.332;48.386;2022-09-03T04:56:12;3.28;;;1.90;;
38529;SDS011;24301;54.332;48.386;2022-09-03T04:58:43;2.13;;;1.40;;
38529;SDS011;24301;54.332;48.386;2022-09-03T05:01:10;5.50;;;2.35;;
38529;SDS011;24301;54.332;48.386;2022-09-03T05:03:37;3.03;;;1.85;;
38529;SDS011;24301;54.332;48.386;2022-09-03T05:06:03;2.83;;;1.60;;
38529;SDS011;24301;54.332;48.386;2022-09-03T05:08:30;3.47;;;2.42;;
38529;SDS011;24301;54.332;48.386;2022-09-03T05:10:59;1.65;;;1.27;;
38529;SDS011;24301;54.332;48.386;2022-09-03T05:13:26;4.45;;;1.23;;
38529;SDS011;24301;54.332;48.386;2022-09-03T05:15:57;3.33;;;1.05;;
38529;SDS011;24301;54.332;48.386;2022-09-03T05:18:25;1.65;;;1.08;;
38529;SDS011;24301;54.332;48.386;2022-09-03T05:20:59;2.90;;;1.25;;
38529;SDS011;24301;54.332;48.386;2022-09-03T05:23:27;2.53;;;1.20;;
38529;SDS011;24301;54.332;48.386;2022-09-03T05:26:02;2.15;;;1.10;;
38529;SDS011;24301;54.332;48.386;2022-09-03T05:28:33;2.10;;;1.13;;
38529;SDS011;24301;54.332;48.386;2022-09-03T05:31:04;3.28;;;1.00;;
38529;SDS011;24301;54.332;48.386;2022-09-03T05:33:44;1.65;;;0.93;;
38529;SDS011;24301;54.332;48.386;2022-09-03T05:36:12;2.58;;;1.00;;
38529;SDS011;24301;54.332;48.386;2022-09-03T05:38:40;2.10;;;1.30;;
38529;SDS011;24301;54.332;48.386;2022-09-03T05:41:11;1.38;;;0.90;;
38529;SDS011;24301;54.332;48.386;2022-09-03T05:43:39;2.22;;;0.90;;
38529;SDS011;24301;54.332;48.386;2022-09-03T05:46:06;1.83;;;1.08;;
38529;SDS011;24301;54.332;48.386;2022-09-03T05:48:34;3.08;;;0.80;;
38529;SDS011;24301;54.332;48.386;2022-09-03T05:53:33;2.97;;;0.60;;
38529;SDS011;24301;54.332;48.386;2022-09-03T05:56:01;1.10;;;0.60;;
38529;SDS011;24301;54.332;48.386;2022-09-03T05:58:31;2.08;;;0.73;;
38529;SDS011;24301;54.332;48.386;2022-09-03T06:03:56;4.60;;;0.88;;
38529;SDS011;24301;54.332;48.386;2022-09-03T06:06:33;1.60;;;0.95;;
38529;SDS011;24301;54.332;48.386;2022-09-03T06:09:02;2.70;;;0.77;;
38529;SDS011;24301;54.332;48.386;2022-09-03T06:11:30;0.80;;;0.75;;
38529;SDS011;24301;54.332;48.386;2022-09-03T06:13:57;1.40;;;0.82;;
38529;SDS011;24301;54.332;48.386;2022-09-03T06:16:25;2.08;;;1.00;;
38529;SDS011;24301;54.332;48.386;2022-09-03T06:18:52;2.35;;;0.90;;
38529;SDS011;24301;54.332;48.386;2022-09-03T06:21:19;1.48;;;1.17;;
38529;SDS011;24301;54.332;48.386;2022-09-03T06:23:52;2.50;;;0.95;;
38529;SDS011;24301;54.332;48.386;2022-09-03T06:26:23;2.92;;;0.93;;
38529;SDS011;24301;54.332;48.386;2022-09-03T06:28:49;3.03;;;0.93;;
38529;SDS011;24301;54.332;48.386;2022-09-03T06:31:19;1.85;;;0.93;;
38529;SDS011;24301;54.332;48.386;2022-09-03T06:33:46;3.28;;;1.13;;
38529;SDS011;24301;54.332;48.386;2022-09-03T06:36:14;2.50;;;1.40;;
38529;SDS011;24301;54.332;48.386;2022-09-03T06:38:41;2.80;;;1.00;;
38529;SDS011;24301;54.332;48.386;2022-09-03T06:41:16;6.13;;;1.55;;
38529;SDS011;24301;54.332;48.386;2022-09-03T06:43:57;3.10;;;1.20;;
38529;SDS011;24301;54.332;48.386;2022-09-03T06:46:28;1.70;;;1.17;;
38529;SDS011;24301;54.332;48.386;2022-09-03T06:48:59;2.15;;;1.40;;
38529;SDS011;24301;54.332;48.386;2022-09-03T06:51:26;3.47;;;1.95;;
38529;SDS011;24301;54.332;48.386;2022-09-03T06:53:54;3.10;;;1.65;;
38529;SDS011;24301;54.332;48.386;2022-09-03T06:56:25;4.20;;;1.88;;
38529;SDS011;24301;54.332;48.386;2022-09-03T06:58:52;1.65;;;1.27;;
38529;SDS011;24301;54.332;48.386;2022-09-03T07:01:20;4.65;;;2.80;;
38529;SDS011;24301;54.332;48.386;2022-09-03T07:03:53;5.15;;;1.30;;
38529;SDS011;24301;54.332;48.386;2022-09-03T07:06:21;1.50;;;1.17;;
38529;SDS011;24301;54.332;48.386;2022-09-03T07:08:49;2.45;;;1.10;;
38529;SDS011;24301;54.332;48.386;2022-09-03T07:11:16;2.03;;;1.38;;
38529;SDS011;24301;54.332;48.386;2022-09-03T07:13:46;5.30;;;2.03;;
38529;SDS011;24301;54.332;48.386;2022-09-03T07:16:18;2.38;;;1.42;;
38529;SDS011;24301;54.332;48.386;2022-09-03T07:18:50;6.63;;;1.90;;
38529;SDS011;24301;54.332;48.386;2022-09-03T07:21:21;3.13;;;1.33;;
38529;SDS011;24301;54.332;48.386;2022-09-03T07:23:48;1.17;;;0.90;;
38529;SDS011;24301;54.332;48.386;2022-09-03T07:26:21;1.92;;;1.20;;
38529;SDS011;24301;54.332;48.386;2022-09-03T07:28:55;4.18;;;1.50;;
38529;SDS011;24301;54.332;48.386;2022-09-03T07:31:22;2.25;;;1.20;;
38529;SDS011;24301;54.332;48.386;2022-09-03T07:33:52;1.38;;;1.02;;
38529;SDS011;24301;54.332;48.386;2022-09-03T07:36:20;2.38;;;1.25;;
38529;SDS011;24301;54.332;48.386;2022-09-03T07:38:47;2.13;;;1.08;;
38529;SDS011;24301;54.332;48.386;2022-09-03T07:41:14;3.92;;;1.67;;
38529;SDS011;24301;54.332;48.386;2022-09-03T07:43:41;2.10;;;1.48;;
38529;SDS011;24301;54.332;48.386;2022-09-03T07:46:14;2.55;;;1.20;;
38529;SDS011;24301;54.332;48.386;2022-09-03T07:48:51;2.95;;;1.33;;
38529;SDS011;24301;54.332;48.386;2022-09-03T07:51:22;2.35;;;1.40;;
38529;SDS011;24301;54.332;48.386;2022-09-03T07:53:51;2.97;;;2.13;;
38529;SDS011;24301;54.332;48.386;2022-09-03T07:56:26;3.15;;;1.80;;
38529;SDS011;24301;54.332;48.386;2022-09-03T07:58:55;4.28;;;2.10;;
38529;SDS011;24301;54.332;48.386;2022-09-03T08:01:22;4.00;;;1.50;;
38529;SDS011;24301;54.332;48.386;2022-09-03T08:03:50;2.10;;;1.40;;
38529;SDS011;24301;54.332;48.386;2022-09-03T08:06:21;2.13;;;1.35;;
38529;SDS011;24301;54.332;48.386;2022-09-03T08:08:53;2.60;;;1.15;;
38529;SDS011;24301;54.332;48.386;2022-09-03T08:11:22;2.95;;;1.42;;
38529;SDS011;24301;54.332;48.386;2022-09-03T08:13:59;1.52;;;1.00;;
38529;SDS011;24301;54.332;48.386;2022-09-03T08:16:31;2.35;;;1.40;;
38529;SDS011;24301;54.332;48.386;2022-09-03T08:19:13;5.72;;;1.75;;
38529;SDS011;24301;54.332;48.386;2022-09-03T08:21:40;2.55;;;1.15;;
38529;SDS011;24301;54.332;48.386;2022-09-03T08:24:06;3.00;;;1.23;;
38529;SDS011;24301;54.332;48.386;2022-09-03T08:26:33;3.45;;;1.88;;
38529;SDS011;24301;54.332;48.386;2022-09-03T08:29:01;2.70;;;1.52;;
38529;SDS011;24301;54.332;48.386;2022-09-03T08:31:28;1.48;;;1.00;;
38529;SDS011;24301;54.332;48.386;2022-09-03T08:33:55;2.88;;;1.27;;
38529;SDS011;24301;54.332;48.386;2022-09-03T08:38:50;3.85;;;1.88;;
38529;SDS011;24301;54.332;48.386;2022-09-03T08:44:23;2.67;;;1.30;;
38529;SDS011;24301;54.332;48.386;2022-09-03T08:55:26;5.15;;;2.15;;
38529;SDS011;24301;54.332;48.386;2022-09-03T09:00:50;3.80;;;1.98;;
38529;SDS011;24301;54.332;48.386;2022-09-03T09:09:30;4.72;;;2.53;;
38529;SDS011;24301;54.332;48.386;2022-09-03T09:14:39;4.93;;;2.13;;
38529;SDS011;24301;54.332;48.386;2022-09-03T09:25:17;3.95;;;2.50;;
38529;SDS011;24301;54.332;48.386;2022-09-03T09:27:59;4.35;;;3.13;;
38529;SDS011;24301;54.332;48.386;2022-09-03T09:30:30;4.93;;;2.92;;
38529;SDS011;24301;54.332;48.386;2022-09-03T09:32:56;4.22;;;3.05;;
38529;SDS011;24301;54.332;48.386;2022-09-03T09:35:24;5.60;;;2.63;;
38529;SDS011;24301;54.332;48.386;2022-09-03T09:40:31;3.72;;;2.72;;
38529;SDS011;24301;54.332;48.386;2022-09-03T09:43:09;6.60;;;2.58;;
38529;SDS011;24301;54.332;48.386;2022-09-03T09:45:40;2.95;;;2.33;;
38529;SDS011;24301;54.332;48.386;2022-09-03T09:48:22;3.80;;;2.83;;
38529;SDS011;24301;54.332;48.386;2022-09-03T09:51:04;4.78;;;2.95;;
38529;SDS011;24301;54.332;48.386;2022-09-03T09:53:37;5.55;;;2.90;;
38529;SDS011;24301;54.332;48.386;2022-09-03T09:56:04;4.65;;;3.35;;
38529;SDS011;24301;54.332;48.386;2022-09-03T09:58:31;5.25;;;2.95;;
38529;SDS011;24301;54.332;48.386;2022-09-03T10:01:03;7.60;;;3.00;;
38529;SDS011;24301;54.332;48.386;2022-09-03T10:03:39;4.63;;;3.10;;
38529;SDS011;24301;54.332;48.386;2022-09-03T10:06:13;4.95;;;3.38;;
38529;SDS011;24301;54.332;48.386;2022-09-03T10:09:10;6.07;;;3.00;;
38529;SDS011;24301;54.332;48.386;2022-09-03T10:11:36;7.13;;;3.85;;
38529;SDS011;24301;54.332;48.386;2022-09-03T10:14:27;5.65;;;3.45;;
38529;SDS011;24301;54.332;48.386;2022-09-03T10:17:03;6.63;;;3.83;;
38529;SDS011;24301;54.332;48.386;2022-09-03T10:19:39;3.78;;;2.92;;
38529;SDS011;24301;54.332;48.386;2022-09-03T10:22:33;4.95;;;3.65;;
38529;SDS011;24301;54.332;48.386;2022-09-03T10:25:11;7.90;;;3.47;;
38529;SDS011;24301;54.332;48.386;2022-09-03T10:27:40;7.72;;;3.60;;
38529;SDS011;24301;54.332;48.386;2022-09-03T10:30:11;9.18;;;4.00;;
38529;SDS011;24301;54.332;48.386;2022-09-03T10:32:42;9.60;;;3.97;;
38529;SDS011;24301;54.332;48.386;2022-09-03T10:37:48;5.03;;;3.63;;
38529;SDS011;24301;54.332;48.386;2022-09-03T10:45:36;4.80;;;3.00;;
38529;SDS011;24301;54.332;48.386;2022-09-03T10:56:06;5.20;;;3.35;;
38529;SDS011;24301;54.332;48.386;2022-09-03T10:58:50;7.53;;;3.53;;
38529;SDS011;24301;54.332;48.386;2022-09-03T11:07:11;7.40;;;4.18;;
38529;SDS011;24301;54.332;48.386;2022-09-03T11:09:45;5.95;;;3.67;;
38529;SDS011;24301;54.332;48.386;2022-09-03T11:14:59;5.95;;;3.60;;
38529;SDS011;24301;54.332;48.386;2022-09-03T11:20:28;5.90;;;3.85;;
38529;SDS011;24301;54.332;48.386;2022-09-03T11:22:57;6.40;;;4.32;;
38529;SDS011;24301;54.332;48.386;2022-09-03T11:25:29;6.60;;;3.90;;
38529;SDS011;24301;54.332;48.386;2022-09-03T11:28:20;7.00;;;4.82;;
38529;SDS011;24301;54.332;48.386;2022-09-03T11:33:40;7.78;;;4.93;;
38529;SDS011;24301;54.332;48.386;2022-09-03T11:36:36;8.20;;;6.10;;
38529;SDS011;24301;54.332;48.386;2022-09-03T11:42:07;12.70;;;7.78;;
38529;SDS011;24301;54.332;48.386;2022-09-03T11:44:37;9.05;;;5.18;;
38529;SDS011;24301;54.332;48.386;2022-09-03T11:49:51;12.75;;;6.22;;
38529;SDS011;24301;54.332;48.386;2022-09-03T11:52:29;10.60;;;7.55;;
38529;SDS011;24301;54.332;48.386;2022-09-03T11:55:05;9.40;;;5.80;;
38529;SDS011;24301;54.332;48.386;2022-09-03T11:57:40;10.88;;;5.43;;
38529;SDS011;24301;54.332;48.386;2022-09-03T12:00:14;8.20;;;5.75;;
38529;SDS011;24301;54.332;48.386;2022-09-03T12:02:50;7.22;;;5.47;;
38529;SDS011;24301;54.332;48.386;2022-09-03T12:08:16;7.00;;;4.88;;
38529;SDS011;24301;54.332;48.386;2022-09-03T12:16:50;9.20;;;5.78;;
38529;SDS011;24301;54.332;48.386;2022-09-03T12:19:25;9.93;;;6.72;;
38529;SDS011;24301;54.332;48.386;2022-09-03T12:22:03;8.80;;;5.18;;
38529;SDS011;24301;54.332;48.386;2022-09-03T12:24:30;9.50;;;6.20;;
38529;SDS011;24301;54.332;48.386;2022-09-03T12:27:00;11.93;;;6.95;;
38529;SDS011;24301;54.332;48.386;2022-09-03T12:29:27;10.00;;;7.00;;
38529;SDS011;24301;54.332;48.386;2022-09-03T12:31:55;12.13;;;7.82;;
38529;SDS011;24301;54.332;48.386;2022-09-03T12:34:31;11.25;;;7.82;;
38529;SDS011;24301;54.332;48.386;2022-09-03T12:36:57;15.68;;;10.05;;
38529;SDS011;24301;54.332;48.386;2022-09-03T12:39:24;11.57;;;8.82;;
38529;SDS011;24301;54.332;48.386;2022-09-03T12:42:04;11.43;;;8.07;;
38529;SDS011;24301;54.332;48.386;2022-09-03T12:44:37;14.60;;;9.60;;
38529;SDS011;24301;54.332;48.386;2022-09-03T12:47:08;12.93;;;7.05;;
38529;SDS011;24301;54.332;48.386;2022-09-03T12:49:40;8.77;;;6.38;;
38529;SDS011;24301;54.332;48.386;2022-09-03T12:52:10;10.25;;;6.05;;
38529;SDS011;24301;54.332;48.386;2022-09-03T12:54:54;11.80;;;6.03;;
38529;SDS011;24301;54.332;48.386;2022-09-03T12:57:31;8.07;;;4.95;;
38529;SDS011;24301;54.332;48.386;2022-09-03T13:00:05;8.57;;;5.68;;
38529;SDS011;24301;54.332;48.386;2022-09-03T13:02:36;11.23;;;5.93;;
38529;SDS011;24301;54.332;48.386;2022-09-03T13:05:16;16.42;;;6.90;;
38529;SDS011;24301;54.332;48.386;2022-09-03T13:07:48;9.77;;;6.43;;
38529;SDS011;24301;54.332;48.386;2022-09-03T13:10:25;9.02;;;5.38;;
38529;SDS011;24301;54.332;48.386;2022-09-03T13:12:57;11.45;;;7.75;;
38529;SDS011;24301;54.332;48.386;2022-09-03T13:15:28;19.05;;;13.18;;
38529;SDS011;24301;54.332;48.386;2022-09-03T13:20:28;15.40;;;10.35;;
38529;SDS011;24301;54.332;48.386;2022-09-03T13:31:46;12.35;;;9.27;;
38529;SDS011;24301;54.332;48.386;2022-09-03T13:34:20;14.02;;;8.80;;
38529;SDS011;24301;54.332;48.386;2022-09-03T13:37:17;21.67;;;10.55;;
38529;SDS011;24301;54.332;48.386;2022-09-03T13:39:52;11.20;;;7.05;;
38529;SDS011;24301;54.332;48.386;2022-09-03T13:44:56;13.18;;;8.15;;
38529;SDS011;24301;54.332;48.386;2022-09-03T13:47:28;11.85;;;9.18;;
38529;SDS011;24301;54.332;48.386;2022-09-03T13:55:41;10.43;;;6.88;;
38529;SDS011;24301;54.332;48.386;2022-09-03T13:58:32;10.25;;;6.38;;
38529;SDS011;24301;54.332;48.386;2022-09-03T14:03:57;17.00;;;11.13;;
38529;SDS011;24301;54.332;48.386;2022-09-03T14:14:28;11.07;;;9.52;;
38529;SDS011;24301;54.332;48.386;2022-09-03T14:17:13;17.60;;;11.73;;
38529;SDS011;24301;54.332;48.386;2022-09-03T14:20:03;15.85;;;12.15;;
38529;SDS011;24301;54.332;48.386;2022-09-03T14:25:26;14.48;;;7.97;;
38529;SDS011;24301;54.332;48.386;2022-09-03T14:28:11;10.23;;;6.88;;
38529;SDS011;24301;54.332;48.386;2022-09-03T14:37:12;9.07;;;6.30;;
38529;SDS011;24301;54.332;48.386;2022-09-03T15:08:51;16.40;;;9.07;;
38529;SDS011;24301;54.332;48.386;2022-09-03T15:11:42;17.17;;;9.73;;
38529;SDS011;24301;54.332;48.386;2022-09-03T15:31:00;16.90;;;8.70;;
38529;SDS011;24301;54.332;48.386;2022-09-03T15:33:50;16.13;;;8.32;;
38529;SDS011;24301;54.332;48.386;2022-09-03T15:36:35;13.88;;;10.40;;
38529;SDS011;24301;54.332;48.386;2022-09-03T15:39:46;13.98;;;7.85;;
38529;SDS011;24301;54.332;48.386;2022-09-03T15:44:40;15.32;;;10.35;;
38529;SDS011;24301;54.332;48.386;2022-09-03T15:47:11;14.93;;;9.20;;
38529;SDS011;24301;54.332;48.386;2022-09-03T15:50:05;14.57;;;8.35;;
38529;SDS011;24301;54.332;48.386;2022-09-03T15:55:42;13.35;;;8.13;;
38529;SDS011;24301;54.332;48.386;2022-09-03T15:58:20;12.18;;;8.48;;
38529;SDS011;24301;54.332;48.386;2022-09-03T16:00:57;14.07;;;8.48;;
38529;SDS011;24301;54.332;48.386;2022-09-03T16:03:36;13.10;;;8.13;;
38529;SDS011;24301;54.332;48.386;2022-09-03T16:08:58;12.77;;;7.40;;
38529;SDS011;24301;54.332;48.386;2022-09-03T16:11:33;9.77;;;6.70;;
38529;SDS011;24301;54.332;48.386;2022-09-03T16:19:20;14.85;;;8.52;;
38529;SDS011;24301;54.332;48.386;2022-09-03T16:25:02;12.55;;;8.45;;
38529;SDS011;24301;54.332;48.386;2022-09-03T16:27:38;15.35;;;7.63;;
38529;SDS011;24301;54.332;48.386;2022-09-03T16:30:43;11.40;;;6.85;;
38529;SDS011;24301;54.332;48.386;2022-09-03T16:35:56;12.57;;;7.40;;
38529;SDS011;24301;54.332;48.386;2022-09-03T16:38:48;11.97;;;7.43;;
38529;SDS011;24301;54.332;48.386;2022-09-03T16:41:24;10.18;;;6.68;;
38529;SDS011;24301;54.332;48.386;2022-09-03T16:49:28;10.30;;;4.82;;
38529;SDS011;24301;54.332;48.386;2022-09-03T16:52:04;9.35;;;5.97;;
38529;SDS011;24301;54.332;48.386;2022-09-03T16:54:48;7.13;;;4.53;;
38529;SDS011;24301;54.332;48.386;2022-09-03T17:00:08;6.97;;;3.38;;
38529;SDS011;24301;54.332;48.386;2022-09-03T17:10:54;5.05;;;2.92;;
38529;SDS011;24301;54.332;48.386;2022-09-03T17:18:48;5.93;;;3.10;;
38529;SDS011;24301;54.332;48.386;2022-09-03T17:21:48;7.15;;;3.20;;
38529;SDS011;24301;54.332;48.386;2022-09-03T17:24:28;5.60;;;2.47;;
38529;SDS011;24301;54.332;48.386;2022-09-03T17:30:08;5.57;;;2.70;;
38529;SDS011;24301;54.332;48.386;2022-09-03T17:35:36;4.20;;;2.00;;
38529;SDS011;24301;54.332;48.386;2022-09-03T17:43:49;5.35;;;2.10;;
38529;SDS011;24301;54.332;48.386;2022-09-03T17:49:45;3.97;;;2.25;;
38529;SDS011;24301;54.332;48.386;2022-09-03T17:55:16;4.93;;;2.30;;
38529;SDS011;24301;54.332;48.386;2022-09-03T17:57:50;4.78;;;1.83;;
38529;SDS011;24301;54.332;48.386;2022-09-03T18:00:23;5.05;;;2.70;;
38529;SDS011;24301;54.332;48.386;2022-09-03T18:03:01;5.18;;;2.28;;
38529;SDS011;24301;54.332;48.386;2022-09-03T18:05:46;5.82;;;2.03;;
38529;SDS011;24301;54.332;48.386;2022-09-03T18:11:34;2.90;;;1.30;;
38529;SDS011;24301;54.332;48.386;2022-09-03T18:17:02;3.90;;;1.10;;
38529;SDS011;24301;54.332;48.386;2022-09-03T18:22:31;1.48;;;1.20;;
38529;SDS011;24301;54.332;48.386;2022-09-03T18:25:39;1.30;;;1.10;;
38529;SDS011;24301;54.332;48.386;2022-09-03T18:28:31;3.72;;;1.30;;
38529;SDS011;24301;54.332;48.386;2022-09-03T18:31:25;0.93;;;0.73;;
38529;SDS011;24301;54.332;48.386;2022-09-03T18:34:10;0.95;;;0.90;;
38529;SDS011;24301;54.332;48.386;2022-09-03T18:36:57;1.17;;;1.00;;
38529;SDS011;24301;54.332;48.386;2022-09-03T18:39:45;3.92;;;1.00;;
38529;SDS011;24301;54.332;48.386;2022-09-03T18:42:42;1.25;;;0.90;;
38529;SDS011;24301;54.332;48.386;2022-09-03T18:46:07;1.55;;;0.60;;
38529;SDS011;24301;54.332;48.386;2022-09-03T18:49:06;0.98;;;0.77;;
38529;SDS011;24301;54.332;48.386;2022-09-03T18:54:54;1.00;;;0.90;;
38529;SDS011;24301;54.332;48.386;2022-09-03T19:07:46;2.00;;;0.90;;
38529;SDS011;24301;54.332;48.386;2022-09-03T19:10:35;1.65;;;0.90;;
38529;SDS011;24301;54.332;48.386;2022-09-03T19:13:34;1.25;;;0.80;;
38529;SDS011;24301;54.332;48.386;2022-09-03T19:22:53;2.38;;;1.20;;
38529;SDS011;24301;54.332;48.386;2022-09-03T19:25:39;1.63;;;1.08;;
38529;SDS011;24301;54.332;48.386;2022-09-03T19:28:24;4.25;;;1.00;;
38529;SDS011;24301;54.332;48.386;2022-09-03T19:40:46;2.10;;;1.40;;
38529;SDS011;24301;54.332;48.386;2022-09-03T19:46:43;3.08;;;1.20;;
38529;SDS011;24301;54.332;48.386;2022-09-03T19:52:29;2.45;;;1.60;;
38529;SDS011;24301;54.332;48.386;2022-09-03T19:55:36;2.55;;;1.50;;
38529;SDS011;24301;54.332;48.386;2022-09-03T19:58:28;4.45;;;1.67;;
38529;SDS011;24301;54.332;48.386;2022-09-03T20:01:15;2.25;;;1.90;;
38529;SDS011;24301;54.332;48.386;2022-09-03T20:04:04;2.03;;;1.00;;
38529;SDS011;24301;54.332;48.386;2022-09-03T20:06:54;1.95;;;1.40;;
38529;SDS011;24301;54.332;48.386;2022-09-03T20:09:41;1.50;;;1.13;;
38529;SDS011;24301;54.332;48.386;2022-09-03T20:12:27;2.15;;;1.13;;
38529;SDS011;24301;54.332;48.386;2022-09-03T20:14:57;2.08;;;1.58;;
38529;SDS011;24301;54.332;48.386;2022-09-03T20:20:03;3.33;;;1.25;;
38529;SDS011;24301;54.332;48.386;2022-09-03T20:30:45;3.60;;;1.38;;
38529;SDS011;24301;54.332;48.386;2022-09-03T20:55:31;2.60;;;0.98;;
38529;SDS011;24301;54.332;48.386;2022-09-03T20:58:07;1.17;;;0.82;;
38529;SDS011;24301;54.332;48.386;2022-09-03T21:00:56;2.90;;;1.20;;
38529;SDS011;24301;54.332;48.386;2022-09-03T21:03:34;1.90;;;1.10;;
38529;SDS011;24301;54.332;48.386;2022-09-03T21:06:10;1.42;;;0.90;;
38529;SDS011;24301;54.332;48.386;2022-09-03T21:11:47;1.80;;;1.10;;
38529;SDS011;24301;54.332;48.386;2022-09-03T21:14:34;2.40;;;1.35;;
38529;SDS011;24301;54.332;48.386;2022-09-03T21:25:00;4.13;;;1.85;;
38529;SDS011;24301;54.332;48.386;2022-09-03T21:27:39;6.43;;;1.42;;
38529;SDS011;24301;54.332;48.386;2022-09-03T21:30:13;3.42;;;2.13;;
38529;SDS011;24301;54.332;48.386;2022-09-03T21:35:37;4.45;;;1.70;;